createdAt,value
2023-04-19T00:01:41.356Z,8.80
2023-04-19T00:11:44.832Z,8.80
2023-04-19T00:21:49.658Z,8.80
2023-04-19T00:31:53.221Z,8.70
2023-04-19T00:41:58.380Z,8.60
2023-04-19T00:52:01.730Z,8.60
2023-04-19T01:02:07.516Z,8.60
2023-04-19T01:12:10.963Z,8.60
2023-04-19T01:22:23.662Z,8.60
2023-04-19T01:32:27.374Z,8.50
2023-04-19T01:42:34.302Z,8.50
2023-04-19T01:52:37.762Z,8.50
2023-04-19T02:02:43.355Z,8.50
2023-04-19T02:12:47.059Z,8.40
2023-04-19T02:22:51.776Z,8.40
2023-04-19T02:32:55.244Z,8.20
2023-04-19T02:43:00.063Z,8.10
2023-04-19T02:53:03.525Z,8.00
2023-04-19T03:03:09.889Z,7.80
2023-04-19T03:13:14.045Z,7.70
2023-04-19T03:23:18.976Z,7.60
2023-04-19T03:33:24.797Z,7.70
2023-04-19T03:43:31.535Z,7.50
2023-04-19T03:53:36.163Z,7.50
2023-04-19T04:03:41.330Z,7.50
2023-04-19T04:13:46.574Z,7.20
2023-04-19T04:23:56.639Z,7.10
2023-04-19T04:34:22.897Z,7.50
2023-04-19T04:44:34.215Z,8.00
2023-04-19T04:54:37.877Z,8.20
2023-04-19T05:04:46.556Z,8.00
2023-04-19T05:14:50.202Z,7.90
2023-04-19T05:24:55.982Z,8.00
2023-04-19T05:34:59.480Z,8.00
2023-04-19T05:45:06.180Z,7.90
2023-04-19T05:55:10.883Z,7.80
2023-04-19T06:05:20.714Z,7.80
2023-04-19T06:15:26.007Z,7.80
2023-04-19T06:25:31.243Z,7.90
2023-04-19T06:35:34.755Z,8.00
2023-04-19T06:45:39.567Z,8.10
2023-04-19T06:55:43.055Z,8.30
2023-04-19T07:05:47.817Z,8.30
2023-04-19T07:15:51.283Z,8.50
2023-04-19T07:25:56.006Z,8.70
2023-04-19T07:35:59.389Z,8.70
2023-04-19T07:46:12.282Z,8.50
2023-04-19T07:56:16.978Z,8.20
2023-04-19T08:06:22.422Z,7.80
2023-04-19T08:26:36.926Z,7.40
2023-04-19T08:36:51.604Z,7.40
2023-04-19T08:47:01.562Z,7.40
2023-04-19T08:57:05.211Z,7.30
2023-04-19T09:07:10.588Z,7.40
2023-04-19T09:17:18.233Z,7.50
2023-04-19T09:27:29.431Z,7.60
2023-04-19T09:37:57.345Z,7.80
2023-04-19T09:48:05.524Z,8.00
2023-04-19T09:58:09.276Z,8.10
2023-04-19T10:08:15.635Z,8.20
2023-04-19T10:18:19.843Z,8.40
2023-04-19T10:28:25.004Z,8.50
2023-04-19T10:38:40.482Z,8.80
2023-04-19T10:48:55.488Z,8.90
2023-04-19T10:59:22.417Z,9.10
2023-04-19T11:09:29.042Z,9.40
2023-04-19T11:19:32.401Z,10.10
2023-04-19T11:29:37.203Z,11.20
2023-04-19T11:39:48.369Z,11.40
2023-04-19T11:49:53.479Z,11.20
2023-04-19T12:00:11.109Z,10.80
2023-04-19T12:10:19.095Z,10.20
2023-04-19T12:20:32.280Z,9.80
2023-04-19T12:30:37.589Z,9.70
2023-04-19T12:40:41.069Z,9.70
2023-04-19T12:50:45.982Z,9.50
2023-04-19T13:00:50.283Z,9.60
2023-04-19T13:10:55.079Z,9.70
2023-04-19T13:20:58.525Z,9.60
2023-04-19T13:31:03.924Z,9.50
2023-04-19T13:41:07.534Z,9.30
2023-04-19T13:51:12.507Z,9.10
2023-04-19T14:01:18.394Z,9.30
2023-04-19T14:11:23.956Z,9.60
2023-04-19T14:21:28.534Z,10.50
2023-04-19T14:31:34.481Z,11.30
2023-04-19T14:41:37.957Z,12.40
2023-04-19T14:51:43.130Z,12.10
2023-04-19T15:01:46.645Z,11.40
2023-04-19T15:11:51.506Z,10.60
2023-04-19T15:21:54.906Z,10.10
2023-04-19T15:31:59.711Z,9.60
2023-04-19T15:42:03.513Z,9.50
2023-04-19T15:52:09.422Z,9.30
2023-04-19T16:02:13.091Z,9.10
2023-04-19T16:12:17.963Z,8.90
2023-04-19T16:22:21.364Z,8.90
2023-04-19T16:32:26.217Z,8.80
2023-04-19T16:42:29.702Z,8.60
2023-04-19T16:52:36.172Z,8.60
2023-04-19T17:02:39.874Z,8.60
2023-04-19T17:12:45.032Z,8.40
2023-04-19T17:22:49.566Z,8.40
2023-04-19T17:32:54.623Z,8.30
2023-04-19T17:42:58.041Z,8.20
2023-04-19T17:53:02.775Z,8.20
2023-04-19T18:03:07.539Z,8.10
2023-04-19T18:13:12.560Z,8.10
2023-04-19T18:23:16.013Z,8.00
2023-04-19T18:33:20.880Z,8.00
2023-04-19T18:43:25.731Z,7.90
2023-04-19T18:53:31.629Z,7.80
2023-04-19T19:13:42.725Z,7.80
2023-04-19T19:23:46.305Z,7.80
2023-04-19T19:34:04.251Z,7.80
2023-04-19T19:44:14.729Z,7.60
2023-04-19T19:54:19.540Z,7.50
2023-04-19T20:04:23.893Z,7.50
2023-04-19T20:14:29.135Z,7.30
2023-04-19T20:24:32.482Z,6.70
2023-04-19T20:34:37.978Z,5.90
2023-04-19T20:44:41.479Z,5.50
2023-04-19T20:54:46.302Z,5.30
2023-04-19T21:04:49.709Z,5.40
2023-04-19T21:14:54.435Z,5.70
2023-04-19T21:24:57.781Z,6.00
2023-04-19T21:35:03.606Z,6.30
2023-04-19T21:45:09.057Z,6.40
2023-04-19T21:55:13.917Z,6.60
2023-04-19T22:05:18.021Z,6.70
2023-04-19T22:15:23.293Z,6.80
2023-04-19T22:25:26.722Z,6.80
2023-04-19T22:35:31.486Z,6.70
2023-04-19T22:45:34.920Z,6.70
2023-04-19T22:55:39.785Z,6.70
2023-04-19T23:05:43.228Z,6.70
2023-04-19T23:15:49.584Z,6.80
2023-04-19T23:25:52.987Z,6.80
2023-04-19T23:35:57.725Z,6.70
2023-04-19T23:46:01.270Z,6.60
2023-04-19T23:56:06.960Z,6.60
